createdAt,value
2017-10-17T00:01:05.593Z,10.00
2017-10-17T00:03:33.897Z,10.00
2017-10-17T00:06:01.476Z,9.90
2017-10-17T00:08:29.052Z,9.90
2017-10-17T00:10:56.566Z,10.00
2017-10-17T00:13:24.150Z,10.00
2017-10-17T00:15:51.678Z,10.00
2017-10-17T00:18:19.237Z,10.00
2017-10-17T00:20:46.891Z,10.00
2017-10-17T00:23:15.266Z,10.00
2017-10-17T00:25:43.621Z,10.00
2017-10-17T00:28:11.185Z,10.00
2017-10-17T00:30:39.460Z,9.90
2017-10-17T00:33:08.602Z,9.90
2017-10-17T00:35:48.497Z,9.90
2017-10-17T00:38:16.014Z,9.90
2017-10-17T00:40:43.590Z,9.90
2017-10-17T00:43:14.512Z,9.80
2017-10-17T00:45:42.034Z,9.80
2017-10-17T00:48:10.346Z,9.80
2017-10-17T00:50:49.429Z,9.80
2017-10-17T00:53:18.742Z,9.70
2017-10-17T00:55:47.158Z,9.70
2017-10-17T00:58:14.668Z,9.70
2017-10-17T01:00:42.212Z,9.70
2017-10-17T01:03:09.735Z,9.60
2017-10-17T01:05:37.282Z,9.60
2017-10-17T01:08:04.780Z,9.50
2017-10-17T01:10:32.319Z,9.60
2017-10-17T01:12:59.821Z,9.70
2017-10-17T01:15:27.351Z,9.60
2017-10-17T01:17:54.855Z,9.60
2017-10-17T01:20:30.828Z,9.50
2017-10-17T01:22:58.332Z,9.50
2017-10-17T01:25:25.895Z,9.50
2017-10-17T01:41:15.069Z,9.50
2017-10-17T01:43:43.995Z,9.40
2017-10-17T01:46:11.541Z,9.40
2017-10-17T01:48:45.587Z,9.30
2017-10-17T01:51:16.602Z,9.30
2017-10-17T01:53:56.878Z,9.30
2017-10-17T01:56:25.424Z,9.30
2017-10-17T01:58:53.733Z,9.30
2017-10-17T02:01:23.020Z,9.30
2017-10-17T02:03:51.291Z,9.30
2017-10-17T02:06:18.936Z,9.20
2017-10-17T02:08:47.200Z,9.20
2017-10-17T02:11:15.631Z,9.20
2017-10-17T02:13:43.125Z,9.20
2017-10-17T02:16:10.678Z,9.20
2017-10-17T02:18:38.183Z,9.20
2017-10-17T02:21:06.502Z,9.20
2017-10-17T02:23:34.026Z,9.10
2017-10-17T02:26:08.141Z,9.10
2017-10-17T02:28:51.329Z,9.10
2017-10-17T02:31:18.883Z,9.10
2017-10-17T02:33:50.073Z,9.00
2017-10-17T02:36:17.601Z,9.00
2017-10-17T02:38:45.211Z,9.10
2017-10-17T02:41:12.871Z,9.10
2017-10-17T02:43:43.843Z,9.00
2017-10-17T02:46:11.469Z,8.80
2017-10-17T02:48:40.699Z,8.80
2017-10-17T02:51:08.214Z,8.90
2017-10-17T02:53:37.193Z,9.00
2017-10-17T02:56:05.699Z,9.00
2017-10-17T02:58:33.198Z,9.00
2017-10-17T03:01:00.737Z,8.90
2017-10-17T03:03:40.842Z,9.00
2017-10-17T03:06:09.117Z,9.00
2017-10-17T03:08:37.374Z,8.90
2017-10-17T03:11:05.046Z,8.80
2017-10-17T03:13:36.025Z,8.90
2017-10-17T03:16:03.692Z,9.00
2017-10-17T03:18:31.219Z,8.90
2017-10-17T03:21:05.495Z,9.00
2017-10-17T03:23:33.724Z,8.90
2017-10-17T03:26:01.249Z,8.90
2017-10-17T03:28:46.557Z,8.90
2017-10-17T03:31:14.072Z,8.90
2017-10-17T03:33:46.312Z,8.90
2017-10-17T03:36:19.378Z,8.90
2017-10-17T03:38:51.417Z,8.90
2017-10-17T03:41:34.770Z,8.90
2017-10-17T03:44:14.943Z,8.80
2017-10-17T03:46:45.019Z,8.60
2017-10-17T03:49:13.192Z,8.70
2017-10-17T03:51:40.714Z,8.70
2017-10-17T03:54:09.046Z,8.70
2017-10-17T03:56:36.628Z,8.70
2017-10-17T03:59:19.966Z,8.80
2017-10-17T04:01:47.734Z,8.70
2017-10-17T04:04:20.887Z,8.70
2017-10-17T04:06:52.843Z,8.70
2017-10-17T04:09:21.121Z,8.70
2017-10-17T04:11:49.401Z,8.70
2017-10-17T04:28:00.731Z,8.60
2017-10-17T04:30:39.491Z,8.50
2017-10-17T04:33:11.563Z,8.50
2017-10-17T04:35:41.760Z,8.30
2017-10-17T04:38:09.300Z,8.20
2017-10-17T04:40:36.816Z,8.40
2017-10-17T04:43:16.441Z,8.20
2017-10-17T04:59:20.072Z,8.40
2017-10-17T05:15:26.706Z,8.30
2017-10-17T05:20:55.320Z,8.20
2017-10-17T05:23:34.230Z,8.10
2017-10-17T05:26:01.784Z,8.10
2017-10-17T05:31:23.152Z,8.20
2017-10-17T05:34:01.290Z,8.00
2017-10-17T05:36:30.466Z,8.20
2017-10-17T05:38:58.009Z,8.10
2017-10-17T05:41:25.671Z,8.10
2017-10-17T05:44:07.139Z,8.00
2017-10-17T05:46:35.393Z,7.90
2017-10-17T05:49:22.316Z,7.90
2017-10-17T05:51:50.582Z,8.10
2017-10-17T05:54:18.085Z,8.10
2017-10-17T05:56:45.623Z,8.10
2017-10-17T05:59:13.906Z,8.00
2017-10-17T06:01:42.173Z,8.00
2017-10-17T06:04:10.466Z,8.00
2017-10-17T06:06:38.665Z,8.00
2017-10-17T06:09:07.253Z,8.10
2017-10-17T06:11:35.427Z,8.20
2017-10-17T06:14:03.077Z,8.20
2017-10-17T06:16:37.397Z,8.20
2017-10-17T06:19:04.973Z,8.20
2017-10-17T06:24:25.994Z,8.20
2017-10-17T06:26:53.541Z,8.30
2017-10-17T06:29:21.071Z,8.40
2017-10-17T06:31:48.595Z,8.40
2017-10-17T06:34:17.015Z,8.40
2017-10-17T06:36:44.549Z,8.40
2017-10-17T06:39:12.144Z,8.50
2017-10-17T06:41:40.649Z,8.50
2017-10-17T06:44:08.148Z,8.50
2017-10-17T06:46:35.863Z,8.60
2017-10-17T06:49:03.422Z,8.60
2017-10-17T06:51:30.961Z,8.90
2017-10-17T06:53:58.465Z,9.10
2017-10-17T06:56:26.219Z,9.10
2017-10-17T06:58:53.735Z,9.20
2017-10-17T07:01:22.136Z,9.50
2017-10-17T07:03:49.698Z,9.40
2017-10-17T07:06:17.270Z,9.50
2017-10-17T07:08:44.848Z,9.70
2017-10-17T07:11:12.698Z,9.70
2017-10-17T07:13:40.196Z,9.70
2017-10-17T07:16:07.721Z,9.90
2017-10-17T07:18:36.174Z,9.90
2017-10-17T07:21:03.753Z,10.00
2017-10-17T07:23:31.278Z,10.00
2017-10-17T07:25:59.589Z,10.20
2017-10-17T07:28:27.135Z,10.20
2017-10-17T07:30:54.678Z,10.20
2017-10-17T07:33:22.215Z,10.30
2017-10-17T07:35:50.491Z,10.50
2017-10-17T07:38:18.814Z,10.60
2017-10-17T07:40:46.326Z,10.50
2017-10-17T07:43:13.926Z,10.60
2017-10-17T07:45:41.493Z,10.70
2017-10-17T07:48:09.024Z,10.80
2017-10-17T07:50:36.710Z,10.90
2017-10-17T07:53:05.037Z,11.00
2017-10-17T07:55:33.398Z,11.20
2017-10-17T07:58:00.898Z,11.20
2017-10-17T08:00:29.172Z,11.40
2017-10-17T08:02:57.497Z,11.50
2017-10-17T08:05:25.075Z,11.50
2017-10-17T08:07:55.197Z,11.60
2017-10-17T08:10:22.894Z,11.70
2017-10-17T08:12:51.166Z,11.80
2017-10-17T08:15:19.445Z,11.90
2017-10-17T08:17:47.725Z,12.00
2017-10-17T08:20:16.007Z,12.10
2017-10-17T08:22:44.403Z,12.30
2017-10-17T08:25:11.975Z,12.20
2017-10-17T08:27:39.538Z,12.30
2017-10-17T08:30:07.151Z,12.40
2017-10-17T08:32:35.449Z,12.60
2017-10-17T08:35:03.126Z,12.60
2017-10-17T08:37:30.654Z,12.70
2017-10-17T08:39:58.940Z,12.90
2017-10-17T08:42:27.260Z,13.00
2017-10-17T08:44:54.891Z,13.00
2017-10-17T08:47:22.551Z,13.10
2017-10-17T08:49:50.045Z,13.20
2017-10-17T08:52:17.594Z,13.30
2017-10-17T08:54:45.110Z,13.40
2017-10-17T08:57:13.531Z,13.50
2017-10-17T08:59:41.034Z,13.50
2017-10-17T09:02:09.334Z,13.70
2017-10-17T09:04:37.729Z,13.80
2017-10-17T09:07:05.260Z,13.80
2017-10-17T09:09:34.270Z,14.10
2017-10-17T09:12:01.809Z,14.10
2017-10-17T09:14:30.074Z,14.20
2017-10-17T09:16:58.504Z,14.30
2017-10-17T09:19:26.013Z,14.30
2017-10-17T09:21:55.047Z,14.60
2017-10-17T09:24:22.632Z,14.60
2017-10-17T09:26:50.276Z,14.80
2017-10-17T09:29:17.764Z,14.80
2017-10-17T09:31:45.298Z,14.90
2017-10-17T09:34:12.843Z,15.10
2017-10-17T09:36:40.343Z,15.00
2017-10-17T09:39:07.835Z,15.00
2017-10-17T09:41:36.149Z,15.10
2017-10-17T09:44:03.700Z,15.10
2017-10-17T09:46:31.192Z,15.20
2017-10-17T09:48:58.748Z,15.40
2017-10-17T09:51:26.262Z,15.40
2017-10-17T09:53:53.784Z,15.30
2017-10-17T09:56:22.175Z,15.40
2017-10-17T09:58:49.707Z,15.40
2017-10-17T10:01:17.219Z,15.40
2017-10-17T10:03:44.792Z,15.50
2017-10-17T10:06:12.923Z,15.50
2017-10-17T10:08:40.469Z,15.60
2017-10-17T10:11:08.150Z,15.80
2017-10-17T10:13:36.451Z,15.80
2017-10-17T10:16:03.993Z,15.70
2017-10-17T10:18:31.675Z,15.80
2017-10-17T10:20:59.216Z,16.00
2017-10-17T10:23:27.539Z,16.20
2017-10-17T10:25:55.053Z,16.20
2017-10-17T10:28:23.340Z,16.10
2017-10-17T10:30:51.615Z,16.10
2017-10-17T10:33:19.905Z,16.20
2017-10-17T10:35:47.451Z,16.10
2017-10-17T10:38:15.850Z,16.30
2017-10-17T10:40:43.353Z,16.30
2017-10-17T10:43:10.892Z,16.40
2017-10-17T10:45:38.383Z,16.30
2017-10-17T10:48:05.946Z,16.40
2017-10-17T10:50:34.962Z,16.50
2017-10-17T10:53:02.455Z,16.50
2017-10-17T10:55:30.098Z,16.60
2017-10-17T10:57:57.618Z,16.60
2017-10-17T11:00:25.142Z,16.60
2017-10-17T11:02:52.654Z,16.70
2017-10-17T11:05:21.168Z,16.80
2017-10-17T11:07:48.723Z,16.70
2017-10-17T11:10:16.257Z,16.90
2017-10-17T11:12:43.836Z,17.00
2017-10-17T11:15:11.336Z,16.90
2017-10-17T11:20:32.689Z,17.00
2017-10-17T11:23:00.205Z,17.00
2017-10-17T11:25:27.777Z,17.10
2017-10-17T11:27:55.285Z,17.20
2017-10-17T11:36:10.300Z,17.60
2017-10-17T11:38:37.808Z,17.50
2017-10-17T11:41:18.134Z,17.60
2017-10-17T11:43:51.422Z,17.60
2017-10-17T11:46:18.982Z,17.80
2017-10-17T11:48:46.498Z,17.70
2017-10-17T11:51:14.000Z,17.60
2017-10-17T11:53:41.585Z,17.60
2017-10-17T11:56:09.235Z,17.60
2017-10-17T11:58:36.748Z,17.60
2017-10-17T12:01:05.063Z,17.80
2017-10-17T12:03:32.707Z,17.80
2017-10-17T12:08:52.973Z,17.60
2017-10-17T12:19:59.958Z,17.80
2017-10-17T12:22:27.484Z,17.90
2017-10-17T12:24:55.001Z,17.90
2017-10-17T12:27:22.769Z,18.00
2017-10-17T12:29:50.282Z,18.00
2017-10-17T12:32:18.569Z,18.20
2017-10-17T12:34:46.071Z,18.20
2017-10-17T12:37:13.590Z,18.40
2017-10-17T12:39:41.090Z,18.20
2017-10-17T12:42:08.616Z,18.20
2017-10-17T12:44:36.112Z,18.20
2017-10-17T12:47:05.129Z,18.00
2017-10-17T12:49:32.668Z,18.00
2017-10-17T12:52:00.185Z,18.10
2017-10-17T12:54:27.672Z,18.10
2017-10-17T12:56:55.214Z,18.10
2017-10-17T12:59:23.949Z,18.00
2017-10-17T13:01:51.591Z,18.30
2017-10-17T13:04:19.081Z,18.40
2017-10-17T13:06:47.357Z,18.50
2017-10-17T13:09:15.782Z,18.80
2017-10-17T13:11:43.336Z,18.80
2017-10-17T13:14:10.838Z,18.60
2017-10-17T13:16:38.378Z,18.40
2017-10-17T13:19:05.971Z,18.40
2017-10-17T13:21:33.524Z,18.40
2017-10-17T13:24:01.066Z,18.30
2017-10-17T13:26:29.391Z,18.20
2017-10-17T13:28:56.893Z,18.20
2017-10-17T13:31:24.413Z,18.20
2017-10-17T13:33:51.907Z,18.10
2017-10-17T13:36:19.402Z,18.10
2017-10-17T13:38:47.678Z,17.90
2017-10-17T13:41:16.303Z,18.10
2017-10-17T13:43:43.904Z,18.10
2017-10-17T13:46:11.425Z,18.20
2017-10-17T13:51:32.139Z,18.30
2017-10-17T13:53:59.668Z,18.30
2017-10-17T13:56:27.963Z,18.30
2017-10-17T13:58:55.508Z,18.30
2017-10-17T14:01:23.029Z,18.30
2017-10-17T14:03:50.548Z,18.30
2017-10-17T14:06:18.054Z,18.30
2017-10-17T14:08:47.919Z,18.10
2017-10-17T14:11:15.482Z,18.10
2017-10-17T14:13:42.994Z,18.10
2017-10-17T14:16:11.275Z,18.00
2017-10-17T14:18:40.346Z,18.00
2017-10-17T14:21:07.863Z,17.90
2017-10-17T14:23:35.532Z,17.90
2017-10-17T14:26:03.876Z,17.90
2017-10-17T14:28:51.537Z,17.80
2017-10-17T14:31:19.032Z,17.80
2017-10-17T14:33:46.760Z,17.70
2017-10-17T14:36:15.423Z,17.70
2017-10-17T14:38:43.879Z,17.60
2017-10-17T14:41:12.568Z,17.60
2017-10-17T14:43:40.076Z,17.60
2017-10-17T14:46:07.582Z,17.60
2017-10-17T14:48:35.135Z,17.60
2017-10-17T14:51:03.689Z,17.50
2017-10-17T14:53:31.291Z,17.50
2017-10-17T14:55:58.864Z,17.40
2017-10-17T14:58:27.179Z,17.40
2017-10-17T15:00:54.732Z,17.30
2017-10-17T15:03:22.884Z,17.40
2017-10-17T15:05:51.168Z,17.20
2017-10-17T15:08:18.706Z,17.20
2017-10-17T15:10:46.999Z,17.10
2017-10-17T15:13:14.537Z,17.10
2017-10-17T15:15:43.247Z,17.00
2017-10-17T15:18:10.741Z,17.00
2017-10-17T15:20:38.301Z,17.20
2017-10-17T15:23:05.816Z,17.10
2017-10-17T15:25:34.096Z,16.90
2017-10-17T15:28:01.671Z,16.90
2017-10-17T15:30:29.192Z,16.80
2017-10-17T15:32:56.699Z,16.70
2017-10-17T15:35:24.233Z,16.70
2017-10-17T15:37:54.396Z,16.60
2017-10-17T15:40:22.159Z,16.50
2017-10-17T15:42:50.526Z,16.50
2017-10-17T15:45:18.202Z,16.50
2017-10-17T15:47:45.742Z,16.40
2017-10-17T15:50:13.240Z,16.30
2017-10-17T15:52:40.739Z,16.30
2017-10-17T15:55:08.247Z,16.20
2017-10-17T15:57:35.775Z,16.10
2017-10-17T16:00:04.561Z,16.00
2017-10-17T16:02:32.159Z,16.00
2017-10-17T16:04:59.666Z,15.90
2017-10-17T16:07:27.205Z,15.90
2017-10-17T16:09:55.455Z,15.70
2017-10-17T16:12:23.029Z,15.70
2017-10-17T16:14:50.534Z,15.60
2017-10-17T16:17:18.045Z,15.50
2017-10-17T16:19:45.546Z,15.40
2017-10-17T16:22:13.060Z,15.30
2017-10-17T16:24:40.565Z,15.20
2017-10-17T16:27:08.095Z,15.20
2017-10-17T16:29:35.611Z,15.10
2017-10-17T16:32:03.168Z,15.00
2017-10-17T16:34:30.667Z,14.90
2017-10-17T16:36:58.940Z,14.70
2017-10-17T16:39:27.195Z,14.60
2017-10-17T16:41:54.687Z,14.60
2017-10-17T16:44:22.194Z,14.50
2017-10-17T16:46:49.733Z,14.50
2017-10-17T16:49:17.228Z,14.40
2017-10-17T16:51:44.754Z,14.30
2017-10-17T16:54:12.418Z,14.30
2017-10-17T16:56:39.926Z,14.20
2017-10-17T16:59:08.227Z,14.10
2017-10-17T17:01:35.736Z,14.10
2017-10-17T17:04:03.434Z,14.00
2017-10-17T17:06:31.851Z,13.90
2017-10-17T17:08:59.374Z,13.90
2017-10-17T17:11:27.910Z,13.80
2017-10-17T17:13:56.272Z,13.80
2017-10-17T17:16:24.721Z,13.80
2017-10-17T17:18:54.481Z,13.70
2017-10-17T17:21:22.310Z,13.70
2017-10-17T17:23:50.061Z,13.70
2017-10-17T17:26:18.571Z,13.50
2017-10-17T17:28:46.371Z,13.50
2017-10-17T17:31:14.220Z,13.50
2017-10-17T17:33:43.103Z,13.50
2017-10-17T17:36:10.638Z,13.40
2017-10-17T17:38:38.319Z,13.40
2017-10-17T17:41:05.834Z,13.40
2017-10-17T17:43:34.130Z,13.30
2017-10-17T17:46:01.639Z,13.30
2017-10-17T17:48:29.147Z,13.30
2017-10-17T17:50:56.650Z,13.20
2017-10-17T17:53:24.176Z,13.20
2017-10-17T17:55:51.728Z,13.10
2017-10-17T17:58:19.240Z,13.10
2017-10-17T18:00:46.855Z,13.10
2017-10-17T18:03:14.356Z,13.10
2017-10-17T18:05:41.893Z,13.00
2017-10-17T18:08:09.409Z,13.00
2017-10-17T18:10:37.696Z,12.90
2017-10-17T18:13:05.242Z,12.90
2017-10-17T18:15:33.661Z,12.90
2017-10-17T18:18:01.175Z,12.80
2017-10-17T18:20:29.460Z,12.80
2017-10-17T18:22:57.872Z,12.70
2017-10-17T18:25:25.425Z,12.70
2017-10-17T18:27:53.082Z,12.70
2017-10-17T18:30:20.619Z,12.70
2017-10-17T18:32:48.123Z,12.60
2017-10-17T18:35:15.653Z,12.60
2017-10-17T18:37:43.142Z,12.60
2017-10-17T18:40:10.667Z,12.50
2017-10-17T18:42:38.155Z,12.50
2017-10-17T18:45:05.652Z,12.50
2017-10-17T18:47:34.135Z,12.50
2017-10-17T18:50:01.737Z,12.50
2017-10-17T18:52:29.249Z,12.50
2017-10-17T18:54:57.530Z,12.40
2017-10-17T18:57:25.095Z,12.40
2017-10-17T18:59:52.968Z,12.40
2017-10-17T19:02:21.255Z,12.30
2017-10-17T19:04:48.763Z,12.30
2017-10-17T19:07:16.300Z,12.30
2017-10-17T19:09:43.833Z,12.30
2017-10-17T19:12:11.349Z,12.30
2017-10-17T19:14:38.917Z,12.20
2017-10-17T19:17:06.441Z,12.20
2017-10-17T19:19:34.045Z,12.10
2017-10-17T19:22:03.257Z,12.10
2017-10-17T19:24:31.525Z,12.10
2017-10-17T19:26:59.804Z,12.10
2017-10-17T19:29:28.068Z,12.00
2017-10-17T19:31:55.597Z,12.00
2017-10-17T19:34:23.135Z,12.00
2017-10-17T19:36:50.644Z,12.00
2017-10-17T19:39:18.162Z,11.90
2017-10-17T19:41:45.737Z,11.90
2017-10-17T19:44:15.394Z,11.90
2017-10-17T19:46:43.757Z,11.90
2017-10-17T19:49:11.263Z,11.90
2017-10-17T19:51:58.475Z,11.90
2017-10-17T19:54:25.985Z,11.90
2017-10-17T19:56:54.932Z,11.80
2017-10-17T19:59:23.725Z,11.90
2017-10-17T20:01:51.253Z,11.80
2017-10-17T20:04:19.554Z,11.80
2017-10-17T20:06:47.063Z,11.70
2017-10-17T20:09:14.578Z,11.70
2017-10-17T20:11:42.410Z,11.70
2017-10-17T20:14:10.730Z,11.70
2017-10-17T20:16:38.262Z,11.70
2017-10-17T20:19:05.774Z,11.60
2017-10-17T20:21:33.389Z,11.60
2017-10-17T20:24:00.915Z,11.60
2017-10-17T20:26:28.419Z,11.60
2017-10-17T20:28:55.932Z,11.50
2017-10-17T20:31:24.248Z,11.50
2017-10-17T20:33:53.320Z,11.50
2017-10-17T20:36:21.593Z,11.50
2017-10-17T20:38:49.145Z,11.50
2017-10-17T20:41:17.431Z,11.40
2017-10-17T20:43:45.700Z,11.40
2017-10-17T20:46:13.935Z,11.40
2017-10-17T20:48:41.699Z,11.40
2017-10-17T20:51:15.274Z,11.40
2017-10-17T20:53:43.725Z,11.30
2017-10-17T20:56:11.232Z,11.30
2017-10-17T20:58:38.750Z,11.30
2017-10-17T21:01:06.327Z,11.30
2017-10-17T21:03:33.940Z,11.30
2017-10-17T21:06:01.549Z,11.20
2017-10-17T21:08:29.081Z,11.20
2017-10-17T21:10:57.349Z,11.20
2017-10-17T21:13:25.688Z,11.20
2017-10-17T21:15:53.184Z,11.20
2017-10-17T21:18:21.439Z,11.10
2017-10-17T21:20:48.963Z,11.10
2017-10-17T21:23:16.525Z,11.00
2017-10-17T21:25:44.161Z,11.00
2017-10-17T21:28:11.672Z,11.10
2017-10-17T21:30:39.194Z,11.10
2017-10-17T21:33:06.698Z,11.10
2017-10-17T21:35:35.160Z,11.10
2017-10-17T21:38:02.709Z,11.00
2017-10-17T21:40:30.203Z,11.10
2017-10-17T21:42:59.204Z,10.90
2017-10-17T21:45:27.484Z,10.90
2017-10-17T21:47:55.768Z,10.90
2017-10-17T21:50:24.089Z,10.90
2017-10-17T21:52:51.583Z,10.90
2017-10-17T21:55:19.079Z,10.90
2017-10-17T21:57:46.595Z,10.90
2017-10-17T22:00:14.091Z,10.90
2017-10-17T22:02:41.652Z,10.90
2017-10-17T22:05:09.165Z,10.80
2017-10-17T22:07:36.675Z,10.80
2017-10-17T22:10:04.274Z,10.80
2017-10-17T22:12:31.807Z,10.80
2017-10-17T22:15:07.412Z,10.80
2017-10-17T22:17:35.703Z,10.80
2017-10-17T22:20:04.080Z,10.80
2017-10-17T22:22:32.370Z,10.80
2017-10-17T22:24:59.914Z,10.80
2017-10-17T22:27:28.408Z,10.70
2017-10-17T22:29:55.956Z,10.70
2017-10-17T22:32:24.785Z,10.80
2017-10-17T22:34:52.321Z,10.70
2017-10-17T22:37:19.828Z,10.70
2017-10-17T22:39:47.348Z,10.70
2017-10-17T22:42:14.863Z,10.70
2017-10-17T22:44:42.414Z,10.60
2017-10-17T22:47:15.567Z,10.60
2017-10-17T22:49:43.613Z,10.60
2017-10-17T22:52:11.113Z,10.60
2017-10-17T22:54:38.603Z,10.50
2017-10-17T22:57:14.659Z,10.50
2017-10-17T22:59:43.041Z,10.50
2017-10-17T23:02:11.393Z,10.50
2017-10-17T23:04:38.889Z,10.50
2017-10-17T23:07:07.183Z,10.50
2017-10-17T23:09:34.670Z,10.50
2017-10-17T23:12:02.243Z,10.50
2017-10-17T23:14:30.575Z,10.40
2017-10-17T23:25:36.383Z,10.30
2017-10-17T23:28:04.630Z,10.30
2017-10-17T23:30:32.196Z,10.30
2017-10-17T23:33:00.576Z,10.20
2017-10-17T23:35:28.882Z,10.20
2017-10-17T23:37:56.369Z,10.20
2017-10-17T23:40:23.988Z,10.20
2017-10-17T23:42:52.276Z,10.20
2017-10-17T23:45:19.826Z,10.20
2017-10-17T23:47:47.330Z,10.20
2017-10-17T23:50:14.854Z,10.20
2017-10-17T23:52:42.337Z,10.10
2017-10-17T23:55:09.838Z,10.20
2017-10-17T23:57:37.330Z,10.10
